createdAt,value
2018-01-03T00:00:41.315Z,0.00
2018-01-03T00:02:34.596Z,0.00
2018-01-03T00:03:34.506Z,0.00
2018-01-03T00:05:27.781Z,0.00
2018-01-03T00:06:27.691Z,0.00
2018-01-03T00:08:20.951Z,0.00
2018-01-03T00:09:20.876Z,0.00
2018-01-03T00:11:14.156Z,0.00
2018-01-03T00:12:14.066Z,0.00
2018-01-03T00:14:07.383Z,0.00
2018-01-03T00:15:07.353Z,0.00
2018-01-03T00:17:01.572Z,0.00
2018-01-03T00:18:01.483Z,0.00
2018-01-03T00:19:54.848Z,0.00
2018-01-03T00:20:54.669Z,0.00
2018-01-03T00:22:47.941Z,0.00
2018-01-03T00:23:47.855Z,0.00
2018-01-03T00:25:41.128Z,0.00
2018-01-03T00:26:41.039Z,0.00
2018-01-03T00:28:34.399Z,0.00
2018-01-03T00:29:34.225Z,0.00
2018-01-03T00:31:27.488Z,0.00
2018-01-03T00:32:27.396Z,0.00
2018-01-03T00:34:20.651Z,0.00
2018-01-03T00:35:20.581Z,0.00
2018-01-03T00:37:13.844Z,0.00
2018-01-03T00:38:13.755Z,0.00
2018-01-03T00:40:07.003Z,0.00
2018-01-03T00:41:06.929Z,0.00
2018-01-03T00:43:01.204Z,0.00
2018-01-03T00:44:01.114Z,0.00
2018-01-03T00:45:54.386Z,0.00
2018-01-03T00:46:54.296Z,0.00
2018-01-03T00:48:47.545Z,0.00
2018-01-03T00:49:47.469Z,0.00
2018-01-03T00:51:40.742Z,0.00
2018-01-03T00:52:40.656Z,0.00
2018-01-03T00:54:33.917Z,0.00
2018-01-03T00:55:33.839Z,0.00
2018-01-03T00:57:27.114Z,0.00
2018-01-03T00:58:27.029Z,0.00
2018-01-03T01:00:20.319Z,0.00
2018-01-03T01:01:20.202Z,0.00
2018-01-03T01:03:13.480Z,0.00
2018-01-03T01:04:13.389Z,0.00
2018-01-03T01:06:06.651Z,0.00
2018-01-03T01:07:06.563Z,0.00
2018-01-03T01:08:59.817Z,0.00
2018-01-03T01:09:59.744Z,0.00
2018-01-03T01:11:53.130Z,0.00
2018-01-03T01:12:52.929Z,0.00
2018-01-03T01:14:46.188Z,0.00
2018-01-03T01:15:46.115Z,0.00
2018-01-03T01:17:39.403Z,0.00
2018-01-03T01:18:39.309Z,0.00
2018-01-03T01:20:32.564Z,0.00
2018-01-03T01:21:32.492Z,0.00
2018-01-03T01:23:25.757Z,0.00
2018-01-03T01:24:25.667Z,0.00
2018-01-03T01:26:18.940Z,0.00
2018-01-03T01:27:18.851Z,0.00
2018-01-03T01:29:12.109Z,0.00
2018-01-03T01:30:12.055Z,0.00
2018-01-03T01:32:05.406Z,0.00
2018-01-03T01:33:05.311Z,0.00
2018-01-03T01:34:58.566Z,0.00
2018-01-03T01:35:58.499Z,0.00
2018-01-03T01:37:51.879Z,0.00
2018-01-03T01:38:51.683Z,0.00
2018-01-03T01:40:44.941Z,0.00
2018-01-03T01:41:44.870Z,0.00
2018-01-03T01:43:38.150Z,0.00
2018-01-03T01:44:38.059Z,0.00
2018-01-03T01:46:31.396Z,0.00
2018-01-03T01:47:31.308Z,0.00
2018-01-03T01:49:24.559Z,0.00
2018-01-03T01:50:24.484Z,0.00
2018-01-03T01:52:17.765Z,0.00
2018-01-03T01:53:17.677Z,0.00
2018-01-03T01:55:10.932Z,0.00
2018-01-03T01:56:10.863Z,0.00
2018-01-03T01:58:04.137Z,0.00
2018-01-03T01:59:04.097Z,0.00
2018-01-03T02:00:57.378Z,0.00
2018-01-03T02:01:57.308Z,0.00
2018-01-03T02:03:50.580Z,0.00
2018-01-03T02:04:50.493Z,0.00
2018-01-03T02:06:43.877Z,0.00
2018-01-03T02:07:43.682Z,0.00
2018-01-03T02:09:36.926Z,0.00
2018-01-03T02:10:36.855Z,0.00
2018-01-03T02:12:30.132Z,0.00
2018-01-03T02:13:30.042Z,0.00
2018-01-03T02:15:23.378Z,0.00
2018-01-03T02:16:23.309Z,0.00
2018-01-03T02:18:16.583Z,0.00
2018-01-03T02:19:16.495Z,0.00
2018-01-03T02:21:09.751Z,0.00
2018-01-03T02:22:09.681Z,0.00
2018-01-03T02:24:03.064Z,0.00
2018-01-03T02:25:02.864Z,0.00
2018-01-03T02:26:56.141Z,0.00
2018-01-03T02:27:56.050Z,0.00
2018-01-03T02:29:49.377Z,0.00
2018-01-03T02:30:49.309Z,0.00
2018-01-03T02:32:42.583Z,0.00
2018-01-03T02:33:42.495Z,0.00
2018-01-03T02:35:35.749Z,0.00
2018-01-03T02:36:35.681Z,0.00
2018-01-03T02:38:29.064Z,0.00
2018-01-03T02:39:28.865Z,0.00
2018-01-03T02:41:22.129Z,0.00
2018-01-03T02:42:22.057Z,0.00
2018-01-03T02:44:15.396Z,0.00
2018-01-03T02:45:15.308Z,0.00
2018-01-03T02:47:08.583Z,0.00
2018-01-03T02:48:08.493Z,0.00
2018-01-03T02:50:01.741Z,0.00
2018-01-03T02:51:01.671Z,0.00
2018-01-03T02:52:54.946Z,0.00
2018-01-03T02:53:54.858Z,0.00
2018-01-03T02:55:48.112Z,0.00
2018-01-03T02:56:48.044Z,0.00
2018-01-03T02:58:41.426Z,0.00
2018-01-03T02:59:41.307Z,0.00
2018-01-03T03:01:34.557Z,0.00
2018-01-03T03:02:34.492Z,0.00
2018-01-03T03:04:27.876Z,0.00
2018-01-03T03:05:27.677Z,0.00
2018-01-03T03:07:20.953Z,0.00
2018-01-03T03:08:20.863Z,0.00
2018-01-03T03:10:14.230Z,0.00
2018-01-03T03:11:14.051Z,0.00
2018-01-03T03:13:07.397Z,0.00
2018-01-03T03:14:07.305Z,0.00
2018-01-03T03:16:00.671Z,0.00
2018-01-03T03:17:00.490Z,0.00
2018-01-03T03:18:53.767Z,0.00
2018-01-03T03:19:53.675Z,0.00
2018-01-03T03:21:46.933Z,0.00
2018-01-03T03:22:46.872Z,0.00
2018-01-03T03:24:40.147Z,0.00
2018-01-03T03:25:40.056Z,0.00
2018-01-03T03:27:33.441Z,0.00
2018-01-03T03:28:33.307Z,0.00
2018-01-03T03:30:26.575Z,0.00
2018-01-03T03:31:26.495Z,0.00
2018-01-03T03:33:19.878Z,0.00
2018-01-03T03:34:19.683Z,0.00
2018-01-03T03:36:13.050Z,0.00
2018-01-03T03:37:12.871Z,0.00
2018-01-03T03:39:06.148Z,0.00
2018-01-03T03:40:06.057Z,0.00
2018-01-03T03:41:59.426Z,0.00
2018-01-03T03:42:59.307Z,0.00
2018-01-03T03:44:52.584Z,0.00
2018-01-03T03:45:52.497Z,0.00
2018-01-03T03:47:45.773Z,0.00
2018-01-03T03:48:45.682Z,0.00
2018-01-03T03:50:38.937Z,0.00
2018-01-03T03:51:38.870Z,0.00
2018-01-03T03:53:32.147Z,0.00
2018-01-03T03:54:32.058Z,0.00
2018-01-03T03:56:25.377Z,0.00
2018-01-03T03:57:25.307Z,0.00
2018-01-03T03:59:18.586Z,0.00
2018-01-03T04:00:18.502Z,0.00
2018-01-03T04:02:11.760Z,0.00
2018-01-03T04:03:11.689Z,0.00
2018-01-03T04:05:04.966Z,0.00
2018-01-03T04:06:04.883Z,0.00
2018-01-03T04:07:58.153Z,0.00
2018-01-03T04:08:58.065Z,0.00
2018-01-03T04:10:51.432Z,0.00
2018-01-03T04:11:51.309Z,0.00
2018-01-03T04:13:44.588Z,0.00
2018-01-03T04:14:44.500Z,0.00
2018-01-03T04:16:37.751Z,0.00
2018-01-03T04:17:37.685Z,0.00
2018-01-03T04:19:30.956Z,0.00
2018-01-03T04:20:30.870Z,0.00
2018-01-03T04:22:24.130Z,0.00
2018-01-03T04:23:24.059Z,0.00
2018-01-03T04:25:17.397Z,0.00
2018-01-03T04:26:17.306Z,0.00
2018-01-03T04:28:10.584Z,0.00
2018-01-03T04:29:10.495Z,0.00
2018-01-03T04:31:03.864Z,0.00
2018-01-03T04:32:03.683Z,0.00
2018-01-03T04:33:56.958Z,0.00
2018-01-03T04:34:56.872Z,0.00
2018-01-03T04:36:50.130Z,0.00
2018-01-03T04:37:50.062Z,0.00
2018-01-03T04:39:43.400Z,0.00
2018-01-03T04:40:43.311Z,0.00
2018-01-03T04:42:36.681Z,0.00
2018-01-03T04:43:36.502Z,0.00
2018-01-03T04:45:29.779Z,0.00
2018-01-03T04:46:29.688Z,0.00
2018-01-03T04:48:22.962Z,0.00
2018-01-03T04:49:22.878Z,0.00
2018-01-03T04:51:16.242Z,0.00
2018-01-03T04:52:16.067Z,0.00
2018-01-03T04:54:09.401Z,0.00
2018-01-03T04:55:09.311Z,0.00
2018-01-03T04:57:02.567Z,0.00
2018-01-03T04:58:02.498Z,0.00
2018-01-03T04:59:55.766Z,0.00
2018-01-03T05:00:55.679Z,0.00
2018-01-03T05:02:49.042Z,0.00
2018-01-03T05:03:48.874Z,0.00
2018-01-03T05:05:42.157Z,0.00
2018-01-03T05:06:42.061Z,0.00
2018-01-03T05:08:35.401Z,0.00
2018-01-03T05:09:35.309Z,0.00
2018-01-03T05:11:28.569Z,0.00
2018-01-03T05:12:28.496Z,0.00
2018-01-03T05:14:21.777Z,0.00
2018-01-03T05:15:21.691Z,0.00
2018-01-03T05:17:14.949Z,0.00
2018-01-03T05:18:14.880Z,0.00
2018-01-03T05:20:08.149Z,0.00
2018-01-03T05:21:08.063Z,0.00
2018-01-03T05:23:01.376Z,0.00
2018-01-03T05:24:01.309Z,0.00
2018-01-03T05:25:54.586Z,0.00
2018-01-03T05:26:54.499Z,0.00
2018-01-03T05:28:47.776Z,0.00
2018-01-03T05:29:47.686Z,0.00
2018-01-03T05:31:40.949Z,0.00
2018-01-03T05:32:40.882Z,0.00
2018-01-03T05:34:34.167Z,0.00
2018-01-03T05:35:34.078Z,0.00
2018-01-03T05:37:27.380Z,0.00
2018-01-03T05:38:27.308Z,0.00
2018-01-03T05:40:20.579Z,0.00
2018-01-03T05:41:20.491Z,0.00
2018-01-03T05:43:13.859Z,0.00
2018-01-03T05:44:13.685Z,0.00
2018-01-03T05:46:07.071Z,0.00
2018-01-03T05:47:06.872Z,0.00
2018-01-03T05:49:00.152Z,0.00
2018-01-03T05:50:00.064Z,0.00
2018-01-03T05:51:53.379Z,0.00
2018-01-03T05:52:53.310Z,0.00
2018-01-03T05:54:46.622Z,0.00
2018-01-03T05:55:46.533Z,0.00
2018-01-03T05:57:39.794Z,0.00
2018-01-03T05:58:39.726Z,0.00
2018-01-03T06:00:33.001Z,0.00
2018-01-03T06:01:32.917Z,0.00
2018-01-03T06:03:26.177Z,0.00
2018-01-03T06:04:26.107Z,0.00
2018-01-03T06:06:19.398Z,0.00
2018-01-03T06:07:19.310Z,0.00
2018-01-03T06:09:12.587Z,0.00
2018-01-03T06:10:12.504Z,0.00
2018-01-03T06:12:05.761Z,0.00
2018-01-03T06:13:05.692Z,0.00
2018-01-03T06:14:58.971Z,0.00
2018-01-03T06:15:58.883Z,0.00
2018-01-03T06:17:52.143Z,0.00
2018-01-03T06:18:52.074Z,0.00
2018-01-03T06:20:45.398Z,0.00
2018-01-03T06:21:45.310Z,0.00
2018-01-03T06:23:38.677Z,0.00
2018-01-03T06:24:38.500Z,0.00
2018-01-03T06:26:31.777Z,0.00
2018-01-03T06:27:31.690Z,0.00
2018-01-03T06:29:24.971Z,0.00
2018-01-03T06:30:24.886Z,0.00
2018-01-03T06:32:18.153Z,0.00
2018-01-03T06:33:18.087Z,0.00
2018-01-03T06:35:11.396Z,0.00
2018-01-03T06:36:11.309Z,0.00
2018-01-03T06:38:04.571Z,0.00
2018-01-03T06:39:04.498Z,0.00
2018-01-03T06:40:57.777Z,0.00
2018-01-03T06:41:57.691Z,0.00
2018-01-03T06:43:50.949Z,4.00
2018-01-03T06:44:50.881Z,0.00
2018-01-03T06:46:44.158Z,0.00
2018-01-03T06:47:44.071Z,0.00
2018-01-03T06:49:37.398Z,0.00
2018-01-03T06:50:37.314Z,0.00
2018-01-03T06:52:30.680Z,0.00
2018-01-03T06:53:30.502Z,0.00
2018-01-03T06:55:23.780Z,0.00
2018-01-03T06:56:23.694Z,0.00
2018-01-03T06:58:17.063Z,0.00
2018-01-03T06:59:16.901Z,0.00
2018-01-03T07:01:10.184Z,4.00
2018-01-03T07:02:10.092Z,0.00
2018-01-03T07:04:03.378Z,4.00
2018-01-03T07:05:03.310Z,0.00
2018-01-03T07:06:56.589Z,4.00
2018-01-03T07:07:56.502Z,4.00
2018-01-03T07:09:49.770Z,4.00
2018-01-03T07:10:49.685Z,4.00
2018-01-03T07:12:42.943Z,4.00
2018-01-03T07:13:42.874Z,8.00
2018-01-03T07:15:36.152Z,12.00
2018-01-03T07:16:36.063Z,12.00
2018-01-03T07:18:29.380Z,16.00
2018-01-03T07:19:29.311Z,16.00
2018-01-03T07:21:22.593Z,20.00
2018-01-03T07:22:22.508Z,24.00
2018-01-03T07:24:15.766Z,28.00
2018-01-03T07:25:15.697Z,36.00
2018-01-03T07:27:09.004Z,40.00
2018-01-03T07:28:08.887Z,40.00
2018-01-03T07:30:02.274Z,44.00
2018-01-03T07:31:02.080Z,48.00
2018-01-03T07:32:55.381Z,64.00
2018-01-03T07:33:55.311Z,72.00
2018-01-03T07:35:48.698Z,72.00
2018-01-03T07:36:48.522Z,72.00
2018-01-03T07:38:41.772Z,92.00
2018-01-03T07:39:41.699Z,84.00
2018-01-03T07:41:34.981Z,60.00
2018-01-03T07:42:34.895Z,60.00
2018-01-03T07:44:28.151Z,40.00
2018-01-03T07:45:28.083Z,32.00
2018-01-03T07:47:21.407Z,56.00
2018-01-03T07:48:21.309Z,108.00
2018-01-03T07:50:14.592Z,160.00
2018-01-03T07:51:14.504Z,168.00
2018-01-03T07:53:07.760Z,192.00
2018-01-03T07:54:07.689Z,208.00
2018-01-03T07:56:01.077Z,224.00
2018-01-03T07:57:00.881Z,216.00
2018-01-03T07:58:54.139Z,196.00
2018-01-03T07:59:54.074Z,180.00
2018-01-03T08:01:47.955Z,116.00
2018-01-03T08:02:47.310Z,96.00
2018-01-03T08:04:40.570Z,128.00
2018-01-03T08:05:40.499Z,136.00
2018-01-03T08:07:33.779Z,164.00
2018-01-03T08:08:33.680Z,188.00
2018-01-03T08:10:26.987Z,216.00
2018-01-03T08:11:26.899Z,216.00
2018-01-03T08:13:20.150Z,248.00
2018-01-03T08:14:20.084Z,272.00
2018-01-03T08:16:13.406Z,356.00
2018-01-03T08:17:13.308Z,372.00
2018-01-03T08:19:06.574Z,396.00
2018-01-03T08:20:06.491Z,428.00
2018-01-03T08:21:59.779Z,480.00
2018-01-03T08:22:59.691Z,496.00
2018-01-03T08:24:52.946Z,720.00
2018-01-03T08:25:52.877Z,776.00
2018-01-03T08:27:46.153Z,932.00
2018-01-03T08:28:46.063Z,992.00
2018-01-03T08:30:39.393Z,1020.00
2018-01-03T08:31:39.309Z,1124.00
2018-01-03T08:33:32.561Z,912.00
2018-01-03T08:34:32.491Z,952.00
2018-01-03T08:36:25.766Z,1012.00
2018-01-03T08:37:25.680Z,920.00
2018-01-03T08:39:19.055Z,756.00
2018-01-03T08:40:18.870Z,744.00
2018-01-03T08:42:12.147Z,1160.00
2018-01-03T08:43:12.055Z,1380.00
2018-01-03T08:45:05.381Z,1720.00
2018-01-03T08:46:05.312Z,1692.00
2018-01-03T08:47:59.597Z,1476.00
2018-01-03T08:48:59.503Z,1536.00
2018-01-03T08:50:52.891Z,1404.00
2018-01-03T08:51:52.675Z,1596.00
2018-01-03T08:53:45.926Z,1108.00
2018-01-03T08:54:45.856Z,1092.00
2018-01-03T08:56:39.128Z,1100.00
2018-01-03T08:57:39.040Z,968.00
2018-01-03T08:59:32.286Z,1268.00
2018-01-03T09:00:32.217Z,1240.00
2018-01-03T09:02:25.484Z,1648.00
2018-01-03T09:03:25.394Z,1516.00
2018-01-03T09:05:18.649Z,1648.00
2018-01-03T09:06:18.577Z,1728.00
2018-01-03T09:08:11.963Z,1608.00
2018-01-03T09:09:11.753Z,1484.00
2018-01-03T09:11:05.143Z,1556.00
2018-01-03T09:12:04.930Z,1636.00
2018-01-03T09:13:58.186Z,1904.00
2018-01-03T09:14:58.118Z,1964.00
2018-01-03T09:16:51.394Z,1660.00
2018-01-03T09:17:51.308Z,2384.00
2018-01-03T09:19:44.578Z,1676.00
2018-01-03T09:20:44.514Z,1852.00
2018-01-03T09:22:37.777Z,1620.00
2018-01-03T09:23:37.683Z,1364.00
2018-01-03T09:25:30.932Z,1580.00
2018-01-03T09:26:30.863Z,1288.00
2018-01-03T09:28:25.142Z,1356.00
2018-01-03T09:29:25.053Z,1484.00
2018-01-03T09:31:18.329Z,1476.00
2018-01-03T09:32:18.241Z,1712.00
2018-01-03T09:34:11.488Z,1672.00
2018-01-03T09:35:11.417Z,1648.00
2018-01-03T09:37:04.806Z,1412.00
2018-01-03T09:38:04.611Z,1428.00
2018-01-03T09:39:57.976Z,2092.00
2018-01-03T09:40:57.789Z,2372.00
2018-01-03T09:42:51.067Z,2236.00
2018-01-03T09:43:50.979Z,2168.00
2018-01-03T09:45:44.242Z,2192.00
2018-01-03T09:46:44.170Z,2168.00
2018-01-03T09:48:37.448Z,2804.00
2018-01-03T09:49:37.356Z,2580.00
2018-01-03T09:51:30.619Z,2608.00
2018-01-03T09:52:30.535Z,2840.00
2018-01-03T09:54:23.782Z,2256.00
2018-01-03T09:55:23.713Z,2656.00
2018-01-03T09:57:16.979Z,2276.00
2018-01-03T09:58:16.893Z,1772.00
2018-01-03T10:00:10.146Z,1496.00
2018-01-03T10:01:10.077Z,1460.00
2018-01-03T10:03:03.397Z,1456.00
2018-01-03T10:04:03.307Z,1408.00
2018-01-03T10:05:56.556Z,1760.00
2018-01-03T10:06:56.486Z,1880.00
2018-01-03T10:08:49.755Z,2032.00
2018-01-03T10:09:49.667Z,2244.00
2018-01-03T10:11:42.935Z,2328.00
2018-01-03T10:12:42.848Z,2444.00
2018-01-03T10:14:36.100Z,2968.00
2018-01-03T10:15:36.026Z,2800.00
2018-01-03T10:17:29.395Z,2876.00
2018-01-03T10:18:29.308Z,2884.00
2018-01-03T10:20:22.570Z,2844.00
2018-01-03T10:21:22.514Z,2772.00
2018-01-03T10:23:15.780Z,2552.00
2018-01-03T10:24:15.690Z,2352.00
2018-01-03T10:26:08.938Z,1752.00
2018-01-03T10:27:08.868Z,1932.00
2018-01-03T10:29:02.162Z,2428.00
2018-01-03T10:30:02.072Z,2432.00
2018-01-03T10:31:55.394Z,1396.00
2018-01-03T10:32:55.308Z,1704.00
2018-01-03T10:34:48.581Z,2040.00
2018-01-03T10:35:48.514Z,2064.00
2018-01-03T10:37:41.810Z,2120.00
2018-01-03T10:38:41.722Z,2076.00
2018-01-03T10:40:35.018Z,1920.00
2018-01-03T10:41:34.939Z,2104.00
2018-01-03T10:43:28.202Z,1776.00
2018-01-03T10:44:28.115Z,1784.00
2018-01-03T10:46:21.379Z,1636.00
2018-01-03T10:47:21.312Z,1604.00
2018-01-03T10:49:15.582Z,1520.00
2018-01-03T10:50:15.495Z,1288.00
2018-01-03T10:52:08.826Z,980.00
2018-01-03T10:53:08.671Z,1000.00
2018-01-03T10:55:02.037Z,1020.00
2018-01-03T10:56:01.847Z,892.00
2018-01-03T10:57:55.117Z,1008.00
2018-01-03T10:58:55.027Z,956.00
2018-01-03T11:00:48.393Z,972.00
2018-01-03T11:01:48.219Z,980.00
2018-01-03T11:03:41.486Z,800.00
2018-01-03T11:04:41.399Z,896.00
2018-01-03T11:06:34.651Z,988.00
2018-01-03T11:07:34.572Z,960.00
2018-01-03T11:09:27.849Z,908.00
2018-01-03T11:10:27.763Z,844.00
2018-01-03T11:12:21.146Z,696.00
2018-01-03T11:13:20.934Z,900.00
2018-01-03T11:15:14.188Z,892.00
2018-01-03T11:16:14.125Z,940.00
2018-01-03T11:18:07.398Z,888.00
2018-01-03T11:19:07.302Z,708.00
2018-01-03T11:21:00.559Z,636.00
2018-01-03T11:22:00.528Z,760.00
2018-01-03T11:23:53.808Z,672.00
2018-01-03T11:24:53.680Z,712.00
2018-01-03T11:26:46.933Z,588.00
2018-01-03T11:27:46.863Z,648.00
2018-01-03T11:29:40.130Z,656.00
2018-01-03T11:30:40.032Z,596.00
2018-01-03T11:32:33.397Z,640.00
2018-01-03T11:33:33.303Z,736.00
2018-01-03T11:35:26.551Z,860.00
2018-01-03T11:36:26.481Z,900.00
2018-01-03T11:38:20.746Z,1256.00
2018-01-03T11:39:20.655Z,1236.00
2018-01-03T11:41:13.911Z,1192.00
2018-01-03T11:42:13.844Z,1196.00
2018-01-03T11:44:08.099Z,1136.00
2018-01-03T11:45:08.017Z,1304.00
2018-01-03T11:47:01.381Z,1160.00
2018-01-03T11:48:01.190Z,1036.00
2018-01-03T11:49:54.574Z,1012.00
2018-01-03T11:50:54.398Z,980.00
2018-01-03T11:52:47.654Z,884.00
2018-01-03T11:53:47.562Z,904.00
2018-01-03T11:55:40.807Z,760.00
2018-01-03T11:56:40.733Z,700.00
2018-01-03T11:58:33.996Z,788.00
2018-01-03T11:59:33.909Z,836.00
2018-01-03T12:01:27.155Z,804.00
2018-01-03T12:02:27.078Z,728.00
2018-01-03T12:04:20.356Z,916.00
2018-01-03T12:05:20.265Z,928.00
2018-01-03T12:07:13.632Z,948.00
2018-01-03T12:08:13.436Z,912.00
2018-01-03T12:10:06.697Z,880.00
2018-01-03T12:11:06.609Z,820.00
2018-01-03T12:13:00.992Z,1324.00
2018-01-03T12:14:00.782Z,1156.00
2018-01-03T12:15:54.027Z,836.00
2018-01-03T12:16:53.954Z,748.00
2018-01-03T12:18:47.221Z,676.00
2018-01-03T12:19:47.132Z,812.00
2018-01-03T12:21:40.378Z,944.00
2018-01-03T12:22:40.302Z,744.00
2018-01-03T12:24:33.572Z,856.00
2018-01-03T12:25:33.477Z,844.00
2018-01-03T12:27:26.732Z,736.00
2018-01-03T12:28:26.650Z,740.00
2018-01-03T12:30:19.915Z,824.00
2018-01-03T12:31:19.824Z,808.00
2018-01-03T12:33:13.088Z,632.00
2018-01-03T12:34:12.996Z,800.00
2018-01-03T12:36:06.245Z,888.00
2018-01-03T12:37:06.163Z,776.00
2018-01-03T12:38:59.431Z,680.00
2018-01-03T12:39:59.338Z,788.00
2018-01-03T12:41:52.593Z,688.00
2018-01-03T12:42:52.526Z,824.00
2018-01-03T12:44:45.785Z,964.00
2018-01-03T12:45:45.697Z,740.00
2018-01-03T12:47:39.059Z,952.00
2018-01-03T12:48:38.877Z,724.00
2018-01-03T12:50:32.140Z,856.00
2018-01-03T12:51:32.049Z,732.00
2018-01-03T12:53:25.395Z,904.00
2018-01-03T12:54:25.308Z,912.00
2018-01-03T12:56:18.674Z,972.00
2018-01-03T12:57:18.490Z,1020.00
2018-01-03T12:59:11.874Z,888.00
2018-01-03T13:00:11.661Z,920.00
2018-01-03T13:02:04.914Z,848.00
2018-01-03T13:03:04.844Z,896.00
2018-01-03T13:04:58.229Z,780.00
2018-01-03T13:05:58.014Z,720.00
2018-01-03T13:07:51.298Z,488.00
2018-01-03T13:08:51.188Z,612.00
2018-01-03T13:10:44.489Z,844.00
2018-01-03T13:11:44.386Z,852.00
2018-01-03T13:13:37.650Z,800.00
2018-01-03T13:14:37.558Z,728.00
2018-01-03T13:16:30.802Z,684.00
2018-01-03T13:17:30.730Z,820.00
2018-01-03T13:19:24.115Z,1080.00
2018-01-03T13:20:23.905Z,1176.00
2018-01-03T13:22:17.147Z,940.00
2018-01-03T13:23:17.076Z,896.00
2018-01-03T13:25:10.459Z,816.00
2018-01-03T13:26:10.250Z,688.00
2018-01-03T13:28:04.507Z,892.00
2018-01-03T13:29:04.422Z,800.00
2018-01-03T13:30:57.810Z,716.00
2018-01-03T13:31:57.595Z,648.00
2018-01-03T13:33:50.978Z,704.00
2018-01-03T13:34:50.766Z,648.00
2018-01-03T13:36:44.027Z,568.00
2018-01-03T13:37:43.958Z,624.00
2018-01-03T13:39:37.220Z,720.00
2018-01-03T13:40:37.129Z,692.00
2018-01-03T13:42:30.375Z,604.00
2018-01-03T13:43:30.303Z,556.00
2018-01-03T13:45:23.566Z,664.00
2018-01-03T13:46:23.476Z,772.00
2018-01-03T13:48:16.725Z,588.00
2018-01-03T13:49:16.652Z,704.00
2018-01-03T13:51:10.035Z,668.00
2018-01-03T13:52:09.822Z,580.00
2018-01-03T13:54:03.087Z,464.00
2018-01-03T13:55:02.995Z,452.00
2018-01-03T13:56:56.240Z,388.00
2018-01-03T13:57:56.168Z,324.00
2018-01-03T13:59:49.434Z,300.00
2018-01-03T14:00:49.350Z,424.00
2018-01-03T14:02:42.709Z,408.00
2018-01-03T14:03:42.517Z,500.00
2018-01-03T14:05:35.910Z,524.00
2018-01-03T14:06:35.689Z,748.00
2018-01-03T14:08:28.936Z,476.00
2018-01-03T14:09:28.865Z,444.00
2018-01-03T14:11:22.126Z,472.00
2018-01-03T14:12:22.035Z,452.00
2018-01-03T14:14:15.401Z,464.00
2018-01-03T14:15:15.311Z,416.00
2018-01-03T14:17:08.569Z,380.00
2018-01-03T14:18:08.495Z,352.00
2018-01-03T14:20:01.889Z,308.00
2018-01-03T14:21:01.697Z,256.00
2018-01-03T14:22:54.914Z,212.00
2018-01-03T14:23:54.843Z,264.00
2018-01-03T14:25:48.108Z,332.00
2018-01-03T14:26:48.017Z,320.00
2018-01-03T14:28:41.300Z,260.00
2018-01-03T14:29:41.190Z,216.00
2018-01-03T14:31:34.437Z,244.00
2018-01-03T14:32:34.366Z,292.00
2018-01-03T14:34:27.633Z,272.00
2018-01-03T14:35:27.539Z,236.00
2018-01-03T14:37:20.782Z,336.00
2018-01-03T14:38:20.714Z,252.00
2018-01-03T14:40:13.982Z,248.00
2018-01-03T14:41:13.911Z,272.00
2018-01-03T14:43:07.137Z,280.00
2018-01-03T14:44:07.066Z,324.00
2018-01-03T14:46:00.335Z,220.00
2018-01-03T14:47:00.242Z,168.00
2018-01-03T14:48:53.508Z,200.00
2018-01-03T14:49:53.422Z,196.00
2018-01-03T14:51:46.680Z,136.00
2018-01-03T14:52:46.593Z,188.00
2018-01-03T14:54:39.861Z,176.00
2018-01-03T14:55:39.764Z,136.00
2018-01-03T14:57:33.033Z,148.00
2018-01-03T14:58:32.954Z,148.00
2018-01-03T15:00:26.224Z,76.00
2018-01-03T15:01:26.147Z,72.00
2018-01-03T15:03:19.379Z,68.00
2018-01-03T15:04:19.307Z,60.00
2018-01-03T15:06:12.695Z,104.00
2018-01-03T15:07:12.480Z,100.00
2018-01-03T15:09:05.912Z,96.00
2018-01-03T15:10:05.653Z,132.00
2018-01-03T15:11:58.899Z,100.00
2018-01-03T15:12:58.827Z,76.00
2018-01-03T15:14:52.212Z,100.00
2018-01-03T15:15:51.999Z,104.00
2018-01-03T15:17:45.246Z,92.00
2018-01-03T15:18:45.174Z,84.00
2018-01-03T15:20:38.442Z,88.00
2018-01-03T15:21:38.352Z,88.00
2018-01-03T15:23:31.598Z,80.00
2018-01-03T15:24:31.525Z,88.00
2018-01-03T15:26:24.906Z,88.00
2018-01-03T15:27:24.694Z,88.00
2018-01-03T15:29:17.982Z,76.00
2018-01-03T15:30:17.871Z,64.00
2018-01-03T15:32:11.118Z,60.00
2018-01-03T15:33:11.046Z,64.00
2018-01-03T15:35:04.428Z,48.00
2018-01-03T15:36:04.214Z,44.00
2018-01-03T15:37:57.462Z,32.00
2018-01-03T15:38:57.389Z,32.00
2018-01-03T15:40:50.773Z,24.00
2018-01-03T15:41:50.565Z,24.00
2018-01-03T15:43:43.929Z,24.00
2018-01-03T15:44:43.741Z,20.00
2018-01-03T15:46:37.010Z,16.00
2018-01-03T15:47:36.913Z,12.00
2018-01-03T15:49:30.296Z,8.00
2018-01-03T15:50:30.077Z,8.00
2018-01-03T15:52:23.445Z,8.00
2018-01-03T15:53:23.306Z,4.00
2018-01-03T15:55:16.570Z,8.00
2018-01-03T15:56:16.478Z,4.00
2018-01-03T15:58:10.728Z,4.00
2018-01-03T15:59:10.653Z,4.00
2018-01-03T16:01:03.940Z,4.00
2018-01-03T16:02:03.828Z,4.00
2018-01-03T16:03:57.073Z,4.00
2018-01-03T16:04:57.004Z,4.00
2018-01-03T16:06:50.271Z,0.00
2018-01-03T16:07:50.185Z,4.00
2018-01-03T16:09:43.448Z,4.00
2018-01-03T16:10:43.357Z,4.00
2018-01-03T16:12:36.613Z,4.00
2018-01-03T16:13:36.531Z,4.00
2018-01-03T16:15:29.795Z,4.00
2018-01-03T16:16:29.709Z,0.00
2018-01-03T16:18:22.950Z,0.00
2018-01-03T16:19:22.876Z,0.00
2018-01-03T16:21:16.141Z,0.00
2018-01-03T16:22:16.050Z,4.00
2018-01-03T16:24:09.376Z,0.00
2018-01-03T16:25:09.306Z,0.00
2018-01-03T16:27:02.565Z,0.00
2018-01-03T16:28:02.476Z,0.00
2018-01-03T16:29:55.749Z,0.00
2018-01-03T16:30:55.656Z,0.00
2018-01-03T16:32:49.024Z,0.00
2018-01-03T16:33:48.840Z,0.00
2018-01-03T16:35:42.104Z,0.00
2018-01-03T16:36:42.015Z,0.00
2018-01-03T16:38:35.258Z,0.00
2018-01-03T16:39:35.187Z,0.00
2018-01-03T16:41:28.456Z,4.00
2018-01-03T16:42:28.360Z,0.00
2018-01-03T16:44:21.726Z,0.00
2018-01-03T16:45:21.535Z,0.00
2018-01-03T16:47:14.812Z,0.00
2018-01-03T16:48:14.709Z,0.00
2018-01-03T16:50:08.094Z,0.00
2018-01-03T16:51:07.888Z,0.00
2018-01-03T16:53:01.289Z,0.00
2018-01-03T16:54:01.218Z,0.00
2018-01-03T16:55:54.491Z,0.00
2018-01-03T16:56:54.403Z,0.00
2018-01-03T16:58:47.658Z,0.00
2018-01-03T16:59:47.587Z,0.00
2018-01-03T17:01:40.971Z,0.00
2018-01-03T17:02:40.789Z,0.00
2018-01-03T17:04:34.020Z,0.00
2018-01-03T17:05:33.946Z,0.00
2018-01-03T17:07:27.212Z,0.00
2018-01-03T17:08:27.121Z,0.00
2018-01-03T17:10:20.386Z,0.00
2018-01-03T17:11:20.298Z,0.00
2018-01-03T17:13:13.543Z,0.00
2018-01-03T17:14:13.472Z,0.00
2018-01-03T17:16:06.750Z,0.00
2018-01-03T17:17:06.657Z,0.00
2018-01-03T17:18:59.911Z,0.00
2018-01-03T17:19:59.841Z,0.00
2018-01-03T17:21:53.115Z,0.00
2018-01-03T17:22:53.026Z,0.00
2018-01-03T17:24:46.284Z,0.00
2018-01-03T17:25:46.216Z,0.00
2018-01-03T17:27:39.488Z,0.00
2018-01-03T17:28:39.400Z,0.00
2018-01-03T17:30:32.723Z,0.00
2018-01-03T17:31:32.583Z,0.00
2018-01-03T17:33:25.949Z,0.00
2018-01-03T17:34:25.767Z,0.00
2018-01-03T17:36:19.046Z,0.00
2018-01-03T17:37:18.977Z,0.00
2018-01-03T17:39:12.209Z,0.00
2018-01-03T17:40:12.137Z,0.00
2018-01-03T17:42:05.405Z,0.00
2018-01-03T17:43:05.363Z,0.00
2018-01-03T17:44:59.566Z,0.00
2018-01-03T17:45:59.493Z,0.00
2018-01-03T17:47:52.883Z,0.00
2018-01-03T17:48:52.677Z,0.00
2018-01-03T17:50:45.953Z,0.00
2018-01-03T17:51:45.865Z,0.00
2018-01-03T17:53:39.117Z,0.00
2018-01-03T17:54:39.048Z,0.00
2018-01-03T17:56:32.324Z,0.00
2018-01-03T17:57:32.232Z,0.00
2018-01-03T17:59:25.481Z,0.00
2018-01-03T18:00:25.407Z,0.00
2018-01-03T18:02:18.683Z,0.00
2018-01-03T18:03:18.594Z,0.00
2018-01-03T18:05:11.860Z,0.00
2018-01-03T18:06:11.788Z,0.00
2018-01-03T18:08:05.064Z,0.00
2018-01-03T18:09:04.973Z,0.00
2018-01-03T18:10:58.356Z,0.00
2018-01-03T18:11:58.157Z,0.00
2018-01-03T18:13:51.412Z,0.00
2018-01-03T18:14:51.342Z,0.00
2018-01-03T18:16:44.637Z,0.00
2018-01-03T18:17:44.546Z,0.00
2018-01-03T18:19:37.912Z,0.00
2018-01-03T18:20:37.718Z,0.00
2018-01-03T18:22:30.996Z,0.00
2018-01-03T18:23:30.907Z,0.00
2018-01-03T18:25:24.190Z,0.00
2018-01-03T18:26:24.119Z,0.00
2018-01-03T18:28:17.395Z,0.00
2018-01-03T18:29:17.312Z,0.00
2018-01-03T18:31:10.582Z,0.00
2018-01-03T18:32:10.490Z,0.00
2018-01-03T18:34:03.748Z,0.00
2018-01-03T18:35:03.672Z,0.00